createdAt,value
2022-07-26T00:01:18.628Z,99.90
2022-07-26T00:04:20.390Z,99.90
2022-07-26T00:07:22.017Z,99.90
2022-07-26T00:10:23.618Z,99.90
2022-07-26T00:13:25.290Z,99.90
2022-07-26T00:16:32.554Z,99.90
2022-07-26T00:19:53.100Z,99.90
2022-07-26T00:23:13.358Z,99.90
2022-07-26T00:26:15.031Z,99.90
2022-07-26T00:29:17.492Z,99.90
2022-07-26T00:32:19.092Z,99.90
2022-07-26T00:35:21.355Z,99.90
2022-07-26T00:38:23.503Z,99.90
2022-07-26T00:41:25.788Z,99.90
2022-07-26T00:44:37.932Z,99.90
2022-07-26T00:47:40.107Z,99.90
2022-07-26T00:50:41.837Z,99.90
2022-07-26T00:53:45.520Z,99.90
2022-07-26T00:56:50.891Z,99.90
2022-07-26T00:59:55.036Z,99.90
2022-07-26T01:02:57.351Z,99.90
2022-07-26T01:05:59.308Z,99.90
2022-07-26T01:09:01.146Z,99.90
2022-07-26T01:12:02.860Z,99.90
2022-07-26T01:15:05.143Z,99.90
2022-07-26T01:18:06.866Z,99.90
2022-07-26T01:21:13.943Z,99.90
2022-07-26T01:24:15.962Z,99.90
2022-07-26T01:27:17.876Z,99.90
2022-07-26T01:30:19.507Z,99.90
2022-07-26T01:33:21.413Z,99.90
2022-07-26T01:36:23.055Z,99.90
2022-07-26T01:39:24.659Z,99.90
2022-07-26T01:42:26.295Z,99.90
2022-07-26T01:45:28.122Z,99.90
2022-07-26T01:48:31.004Z,99.90
2022-07-26T01:51:32.893Z,99.90
2022-07-26T01:54:34.501Z,99.90
2022-07-26T01:57:36.269Z,99.90
2022-07-26T02:00:37.920Z,99.90
2022-07-26T02:03:39.541Z,99.90
2022-07-26T02:06:41.144Z,99.90
2022-07-26T02:09:42.949Z,99.90
2022-07-26T02:12:44.664Z,99.90
2022-07-26T02:15:46.380Z,99.90
2022-07-26T02:18:48.032Z,99.90
2022-07-26T02:21:49.620Z,99.90
2022-07-26T02:24:51.842Z,99.90
2022-07-26T02:27:53.693Z,99.90
2022-07-26T02:30:55.351Z,99.90
2022-07-26T02:33:58.515Z,99.90
2022-07-26T02:37:00.807Z,99.90
2022-07-26T02:40:03.138Z,99.90
2022-07-26T02:43:06.519Z,99.90
2022-07-26T02:46:08.248Z,99.90
2022-07-26T02:49:09.954Z,99.90
2022-07-26T02:52:11.682Z,99.90
2022-07-26T02:55:17.122Z,99.90
2022-07-26T02:58:21.405Z,99.90
2022-07-26T03:01:23.173Z,99.90
2022-07-26T03:04:24.959Z,99.90
2022-07-26T03:07:26.548Z,99.90
2022-07-26T03:10:28.469Z,99.90
2022-07-26T03:13:30.071Z,99.90
2022-07-26T03:16:32.107Z,99.90
2022-07-26T03:19:33.785Z,99.90
2022-07-26T03:22:35.483Z,99.90
2022-07-26T03:25:37.639Z,99.90
2022-07-26T03:28:42.056Z,99.90
2022-07-26T03:31:43.691Z,99.90
2022-07-26T03:34:45.307Z,99.90
2022-07-26T03:37:46.913Z,99.90
2022-07-26T03:40:48.567Z,99.90
2022-07-26T03:43:50.158Z,99.90
2022-07-26T03:46:51.764Z,99.90
2022-07-26T03:49:53.479Z,99.90
2022-07-26T03:52:55.105Z,99.90
2022-07-26T03:56:15.579Z,99.90
2022-07-26T03:59:22.527Z,99.90
2022-07-26T04:02:24.201Z,99.90
2022-07-26T04:05:25.958Z,99.90
2022-07-26T04:08:28.219Z,99.90
2022-07-26T04:11:29.932Z,99.90
2022-07-26T04:14:31.540Z,99.90
2022-07-26T04:17:38.306Z,99.90
2022-07-26T04:20:40.214Z,99.90
2022-07-26T04:23:41.862Z,99.90
2022-07-26T04:26:43.489Z,99.90
2022-07-26T04:29:45.089Z,99.90
2022-07-26T04:32:49.719Z,99.90
2022-07-26T04:35:52.254Z,99.90
2022-07-26T04:38:53.883Z,99.90
2022-07-26T04:41:55.460Z,99.90
2022-07-26T04:44:57.291Z,99.90
2022-07-26T04:47:59.674Z,99.90
2022-07-26T04:51:01.663Z,99.90
2022-07-26T04:54:03.287Z,99.90
2022-07-26T04:57:04.899Z,99.90
2022-07-26T05:00:24.352Z,99.90
2022-07-26T05:03:26.271Z,99.90
2022-07-26T05:06:27.857Z,99.90
2022-07-26T05:09:30.064Z,99.90
2022-07-26T05:12:31.646Z,99.90
2022-07-26T05:15:35.736Z,99.90
2022-07-26T05:18:45.456Z,99.90
2022-07-26T05:21:51.428Z,99.90
2022-07-26T05:24:52.999Z,99.90
2022-07-26T05:27:54.679Z,99.90
2022-07-26T05:30:56.402Z,99.90
2022-07-26T05:33:58.012Z,99.90
2022-07-26T05:36:59.655Z,99.90
2022-07-26T05:40:01.413Z,99.90
2022-07-26T05:43:04.608Z,99.90
2022-07-26T05:46:09.574Z,99.90
2022-07-26T05:49:11.582Z,99.90
2022-07-26T05:52:13.389Z,99.90
2022-07-26T05:55:15.034Z,99.90
2022-07-26T05:58:16.697Z,99.90
2022-07-26T06:01:18.366Z,99.90
2022-07-26T06:04:21.261Z,99.90
2022-07-26T06:07:26.805Z,99.90
2022-07-26T06:10:28.370Z,99.90
2022-07-26T06:13:30.246Z,99.90
2022-07-26T06:16:32.017Z,99.90
2022-07-26T06:19:33.869Z,99.90
2022-07-26T06:22:35.435Z,99.90
2022-07-26T06:25:37.688Z,99.90
2022-07-26T06:28:39.916Z,99.90
2022-07-26T06:31:41.837Z,99.90
2022-07-26T06:34:43.514Z,99.90
2022-07-26T06:37:45.121Z,99.90
2022-07-26T06:40:46.770Z,99.90
2022-07-26T06:43:48.412Z,99.90
2022-07-26T06:46:50.213Z,99.90
2022-07-26T06:49:51.824Z,99.90
2022-07-26T06:52:53.495Z,99.90
2022-07-26T06:55:55.068Z,99.90
2022-07-26T06:58:56.739Z,99.90
2022-07-26T07:02:00.402Z,99.90
2022-07-26T07:05:03.350Z,99.90
2022-07-26T07:08:05.607Z,99.90
2022-07-26T07:11:08.980Z,99.90
2022-07-26T07:14:10.819Z,99.90
2022-07-26T07:17:17.204Z,99.90
2022-07-26T07:20:21.781Z,99.90
2022-07-26T07:23:23.494Z,99.90
2022-07-26T07:26:25.222Z,99.90
2022-07-26T07:29:26.901Z,99.90
2022-07-26T07:32:31.016Z,99.90
2022-07-26T07:35:32.933Z,99.90
2022-07-26T07:38:37.410Z,99.90
2022-07-26T07:41:40.742Z,99.90
2022-07-26T07:44:42.432Z,99.90
2022-07-26T07:47:44.017Z,99.90
2022-07-26T07:50:45.739Z,99.90
2022-07-26T07:53:56.763Z,99.90
2022-07-26T07:56:59.565Z,99.90
2022-07-26T08:00:01.795Z,99.90
2022-07-26T08:03:03.635Z,99.90
2022-07-26T08:06:08.162Z,99.90
2022-07-26T08:09:10.165Z,99.90
2022-07-26T08:12:15.005Z,99.90
2022-07-26T08:15:16.618Z,99.90
2022-07-26T08:18:22.859Z,99.90
2022-07-26T08:21:27.545Z,99.90
2022-07-26T08:24:30.589Z,99.90
2022-07-26T08:27:37.943Z,99.90
2022-07-26T08:30:42.442Z,99.90
2022-07-26T08:33:45.953Z,99.90
2022-07-26T08:37:14.223Z,99.90
2022-07-26T08:40:10.098Z,99.90
2022-07-26T08:43:11.701Z,99.90
2022-07-26T08:46:14.233Z,99.90
2022-07-26T08:49:15.966Z,99.90
2022-07-26T08:52:17.655Z,99.90
2022-07-26T08:55:21.034Z,99.90
2022-07-26T08:58:22.641Z,99.90
2022-07-26T09:01:24.459Z,99.90
2022-07-26T09:04:33.826Z,99.90
2022-07-26T09:07:39.572Z,99.90
2022-07-26T09:10:41.548Z,99.90
2022-07-26T09:14:00.148Z,99.90
2022-07-26T09:17:01.854Z,99.90
2022-07-26T09:20:12.151Z,99.90
2022-07-26T09:23:13.879Z,99.90
2022-07-26T09:26:21.104Z,99.90
2022-07-26T09:29:22.971Z,99.90
2022-07-26T09:32:26.369Z,99.90
2022-07-26T09:35:50.473Z,99.90
2022-07-26T09:38:58.436Z,99.90
2022-07-26T09:42:26.981Z,99.30
2022-07-26T09:45:30.737Z,99.70
2022-07-26T09:48:59.261Z,99.90
2022-07-26T09:51:55.048Z,98.80
2022-07-26T09:55:05.568Z,98.00
2022-07-26T09:58:07.619Z,98.00
2022-07-26T10:01:09.230Z,98.70
2022-07-26T10:04:11.951Z,98.40
2022-07-26T10:07:14.773Z,98.30
2022-07-26T10:10:37.306Z,98.70
2022-07-26T10:13:39.530Z,97.80
2022-07-26T10:16:41.226Z,97.10
2022-07-26T10:19:45.763Z,96.30
2022-07-26T10:22:50.480Z,95.40
2022-07-26T10:25:52.311Z,95.00
2022-07-26T10:28:53.969Z,94.40
2022-07-26T10:32:15.847Z,94.80
2022-07-26T10:35:44.532Z,95.00
2022-07-26T10:39:01.611Z,95.30
2022-07-26T10:42:10.581Z,96.80
2022-07-26T10:45:21.177Z,97.10
2022-07-26T10:48:24.448Z,97.20
2022-07-26T10:51:29.413Z,96.30
2022-07-26T10:54:31.052Z,95.90
2022-07-26T10:57:41.820Z,95.50
2022-07-26T11:00:59.322Z,95.70
2022-07-26T11:04:01.117Z,96.10
2022-07-26T11:07:02.709Z,96.20
2022-07-26T11:10:04.625Z,96.10
2022-07-26T11:13:12.695Z,95.90
2022-07-26T11:16:16.195Z,94.20
2022-07-26T11:19:24.779Z,93.40
2022-07-26T11:22:35.725Z,93.00
2022-07-26T11:25:37.331Z,92.20
2022-07-26T11:28:57.564Z,92.50
2022-07-26T11:32:04.810Z,92.00
2022-07-26T11:35:18.192Z,92.10
2022-07-26T11:38:19.852Z,92.60
2022-07-26T11:41:34.970Z,93.00
2022-07-26T11:44:37.052Z,93.20
2022-07-26T11:47:38.756Z,92.00
2022-07-26T11:50:40.342Z,91.70
2022-07-26T11:53:42.076Z,91.30
2022-07-26T11:56:58.027Z,90.70
2022-07-26T12:00:00.781Z,91.40
2022-07-26T12:03:02.794Z,91.80
2022-07-26T12:06:12.411Z,91.80
2022-07-26T12:09:48.220Z,92.10
2022-07-26T12:12:50.196Z,92.10
2022-07-26T12:15:53.234Z,92.00
2022-07-26T12:18:55.054Z,91.80
2022-07-26T12:22:07.161Z,92.10
2022-07-26T12:25:08.896Z,91.90
2022-07-26T12:28:10.507Z,91.90
2022-07-26T12:31:26.963Z,91.90
2022-07-26T12:34:29.012Z,91.20
2022-07-26T12:37:39.414Z,90.90
2022-07-26T12:40:41.790Z,91.10
2022-07-26T12:43:43.447Z,89.30
2022-07-26T12:46:51.444Z,88.60
2022-07-26T12:49:53.133Z,88.20
2022-07-26T12:53:06.117Z,84.70
2022-07-26T12:56:07.827Z,84.80
2022-07-26T12:59:10.875Z,83.00
2022-07-26T13:02:20.334Z,82.10
2022-07-26T13:05:22.695Z,82.00
2022-07-26T13:08:24.300Z,81.10
2022-07-26T13:11:25.988Z,78.60
2022-07-26T13:14:28.104Z,82.30
2022-07-26T13:17:29.844Z,84.00
2022-07-26T13:20:31.514Z,86.10
2022-07-26T13:23:35.550Z,86.70
2022-07-26T13:26:37.551Z,87.90
2022-07-26T13:29:39.210Z,88.90
2022-07-26T13:32:41.462Z,88.80
2022-07-26T13:35:43.421Z,87.20
2022-07-26T13:38:45.048Z,88.40
2022-07-26T13:41:46.934Z,90.00
2022-07-26T13:44:48.526Z,90.00
2022-07-26T13:47:50.133Z,90.00
2022-07-26T13:50:54.171Z,90.20
2022-07-26T13:53:55.790Z,90.40
2022-07-26T13:56:59.136Z,90.60
2022-07-26T14:00:00.760Z,90.00
2022-07-26T14:03:02.424Z,89.70
2022-07-26T14:06:04.373Z,90.30
2022-07-26T14:09:10.613Z,90.50
2022-07-26T14:12:13.971Z,90.40
2022-07-26T14:15:21.733Z,89.80
2022-07-26T14:18:24.044Z,87.60
2022-07-26T14:21:26.862Z,85.90
2022-07-26T14:24:29.115Z,85.50
2022-07-26T14:27:30.751Z,85.20
2022-07-26T14:30:32.555Z,84.70
2022-07-26T14:33:34.518Z,85.20
2022-07-26T14:36:36.694Z,86.00
2022-07-26T14:39:38.314Z,84.50
2022-07-26T14:42:40.068Z,84.60
2022-07-26T14:45:41.693Z,82.00
2022-07-26T14:48:54.177Z,81.40
2022-07-26T14:51:56.660Z,80.10
2022-07-26T14:54:58.382Z,80.90
2022-07-26T14:57:59.996Z,81.80
2022-07-26T15:01:01.800Z,81.20
2022-07-26T15:04:04.454Z,81.30
2022-07-26T15:07:06.100Z,80.90
2022-07-26T15:10:11.009Z,78.50
2022-07-26T15:13:14.797Z,78.20
2022-07-26T15:16:16.616Z,78.30
2022-07-26T15:19:23.595Z,77.40
2022-07-26T15:22:27.164Z,77.80
2022-07-26T15:25:28.881Z,78.30
2022-07-26T15:28:30.453Z,79.80
2022-07-26T15:31:37.467Z,79.30
2022-07-26T15:34:39.331Z,78.40
2022-07-26T15:37:43.505Z,78.60
2022-07-26T15:40:45.185Z,77.40
2022-07-26T15:43:49.309Z,76.20
2022-07-26T15:46:51.486Z,76.80
2022-07-26T15:49:53.255Z,76.00
2022-07-26T15:52:54.963Z,74.30
2022-07-26T15:55:57.456Z,75.90
2022-07-26T15:58:59.061Z,76.00
2022-07-26T16:02:00.696Z,75.20
2022-07-26T16:05:03.702Z,73.50
2022-07-26T16:08:05.728Z,72.30
2022-07-26T16:11:07.375Z,71.50
2022-07-26T16:14:09.337Z,70.40
2022-07-26T16:17:10.989Z,70.00
2022-07-26T16:20:12.602Z,69.50
2022-07-26T16:23:14.291Z,70.00
2022-07-26T16:26:15.956Z,68.80
2022-07-26T16:29:18.248Z,68.70
2022-07-26T16:32:21.178Z,70.30
2022-07-26T16:35:22.998Z,69.60
2022-07-26T16:38:24.661Z,71.30
2022-07-26T16:41:28.966Z,71.70
2022-07-26T16:44:30.750Z,72.70
2022-07-26T16:47:32.497Z,73.30
2022-07-26T16:50:34.725Z,74.00
2022-07-26T16:53:36.375Z,74.80
2022-07-26T16:56:38.085Z,74.60
2022-07-26T16:59:39.675Z,73.10
2022-07-26T17:02:41.847Z,72.90
2022-07-26T17:05:44.938Z,72.90
2022-07-26T17:08:46.623Z,72.40
2022-07-26T17:11:48.259Z,71.50
2022-07-26T17:14:50.130Z,70.10
2022-07-26T17:17:51.802Z,69.20
2022-07-26T17:20:53.494Z,70.00
2022-07-26T17:23:55.118Z,71.80
2022-07-26T17:26:57.237Z,74.00
2022-07-26T17:30:03.051Z,74.80
2022-07-26T17:33:07.949Z,75.30
2022-07-26T17:36:30.639Z,75.70
2022-07-26T17:39:52.550Z,76.50
2022-07-26T17:42:54.366Z,77.30
2022-07-26T17:45:55.950Z,76.10
2022-07-26T17:48:58.011Z,76.10
2022-07-26T17:51:59.674Z,76.90
2022-07-26T17:55:01.695Z,77.40
2022-07-26T17:58:03.397Z,76.70
2022-07-26T18:01:05.246Z,78.10
2022-07-26T18:04:06.917Z,78.90
2022-07-26T18:07:08.871Z,80.20
2022-07-26T18:10:11.427Z,81.90
2022-07-26T18:13:13.166Z,82.80
2022-07-26T18:16:15.081Z,84.50
2022-07-26T18:19:16.865Z,85.40
2022-07-26T18:22:18.497Z,86.40
2022-07-26T18:25:20.297Z,87.30
2022-07-26T18:28:21.920Z,88.00
2022-07-26T18:31:23.576Z,88.00
2022-07-26T18:34:25.378Z,88.80
2022-07-26T18:37:27.414Z,89.00
2022-07-26T18:40:29.236Z,89.50
2022-07-26T18:43:30.875Z,89.50
2022-07-26T18:46:32.604Z,89.20
2022-07-26T18:49:35.702Z,89.70
2022-07-26T18:52:38.361Z,89.80
2022-07-26T18:55:40.075Z,90.10
2022-07-26T18:58:41.829Z,90.10
2022-07-26T19:01:43.553Z,90.20
2022-07-26T19:04:45.328Z,90.20
2022-07-26T19:07:47.027Z,90.50
2022-07-26T19:10:48.872Z,90.50
2022-07-26T19:13:50.468Z,90.70
2022-07-26T19:16:52.073Z,91.00
2022-07-26T19:19:54.884Z,91.00
2022-07-26T19:22:58.143Z,91.10
2022-07-26T19:25:59.834Z,91.30
2022-07-26T19:29:01.562Z,91.60
2022-07-26T19:32:04.025Z,91.80
2022-07-26T19:35:06.553Z,92.30
2022-07-26T19:38:08.492Z,92.80
2022-07-26T19:41:15.516Z,93.10
2022-07-26T19:44:17.774Z,93.30
2022-07-26T19:47:19.765Z,93.10
2022-07-26T19:50:21.443Z,93.10
2022-07-26T19:53:23.047Z,93.20
2022-07-26T19:56:28.146Z,93.30
2022-07-26T19:59:30.075Z,93.40
2022-07-26T20:02:31.971Z,93.50
2022-07-26T20:05:34.202Z,93.30
2022-07-26T20:08:40.102Z,93.60
2022-07-26T20:11:42.730Z,93.50
2022-07-26T20:14:45.178Z,93.50
2022-07-26T20:17:47.558Z,93.60
2022-07-26T20:20:49.321Z,93.90
2022-07-26T20:23:50.921Z,94.10
2022-07-26T20:26:53.049Z,94.30
2022-07-26T20:30:00.451Z,94.70
2022-07-26T20:33:02.720Z,95.30
2022-07-26T20:36:04.418Z,95.70
2022-07-26T20:39:06.143Z,96.00
2022-07-26T20:42:09.275Z,96.50
2022-07-26T20:45:14.775Z,96.60
2022-07-26T20:48:16.477Z,97.30
2022-07-26T20:51:18.191Z,97.60
2022-07-26T20:54:20.037Z,97.60
2022-07-26T20:57:23.386Z,97.60
2022-07-26T21:00:26.395Z,97.90
2022-07-26T21:03:28.080Z,98.00
2022-07-26T21:06:29.871Z,98.50
2022-07-26T21:09:31.565Z,99.00
2022-07-26T21:12:33.479Z,99.90
2022-07-26T21:15:35.310Z,99.90
2022-07-26T21:18:38.212Z,99.90
2022-07-26T21:21:39.844Z,99.90
2022-07-26T21:24:41.462Z,99.90
2022-07-26T21:27:43.720Z,99.90
2022-07-26T21:30:46.057Z,99.90
2022-07-26T21:33:47.720Z,99.90
2022-07-26T21:36:49.366Z,99.90
2022-07-26T21:39:52.010Z,99.90
2022-07-26T21:42:53.588Z,99.90
2022-07-26T21:45:55.364Z,99.90
2022-07-26T21:48:58.443Z,99.90
2022-07-26T21:52:00.169Z,99.90
2022-07-26T21:55:02.079Z,99.90
2022-07-26T21:58:03.766Z,99.90
2022-07-26T22:01:07.547Z,99.90
2022-07-26T22:04:10.139Z,99.90
2022-07-26T22:07:12.286Z,99.90
2022-07-26T22:10:13.887Z,99.90
2022-07-26T22:13:15.764Z,99.90
2022-07-26T22:16:17.562Z,99.90
2022-07-26T22:19:19.295Z,99.90
2022-07-26T22:22:20.896Z,99.90
2022-07-26T22:25:22.494Z,99.90
2022-07-26T22:28:24.180Z,99.90
2022-07-26T22:31:26.121Z,99.90
2022-07-26T22:34:27.976Z,99.90
2022-07-26T22:37:29.585Z,99.90
2022-07-26T22:40:31.455Z,99.90
2022-07-26T22:43:33.131Z,99.90
2022-07-26T22:46:34.808Z,99.90
2022-07-26T22:49:36.561Z,99.90
2022-07-26T22:52:38.415Z,99.90
2022-07-26T22:55:40.134Z,99.90
2022-07-26T22:58:41.749Z,99.90
2022-07-26T23:01:45.597Z,99.90
2022-07-26T23:04:47.255Z,99.90
2022-07-26T23:07:49.518Z,99.90
2022-07-26T23:10:52.378Z,99.90
2022-07-26T23:13:59.066Z,99.90
2022-07-26T23:17:00.956Z,99.90
2022-07-26T23:20:03.224Z,99.90
2022-07-26T23:23:04.813Z,99.90
2022-07-26T23:26:06.434Z,99.90
2022-07-26T23:29:08.551Z,99.90
2022-07-26T23:32:10.427Z,99.90
2022-07-26T23:35:12.761Z,99.90
2022-07-26T23:38:14.404Z,99.90
2022-07-26T23:41:16.054Z,99.90
2022-07-26T23:44:17.626Z,99.90
2022-07-26T23:47:19.221Z,99.90
2022-07-26T23:50:20.931Z,99.90
2022-07-26T23:53:27.010Z,99.90
2022-07-26T23:56:28.844Z,99.90
2022-07-26T23:59:30.466Z,99.90
